sensor_id;sensor_type;location;lat;lon;timestamp;P1;durP1;ratioP1;P2;durP2;ratioP2
35074;SDS011;21260;34.984;32.490;2023-06-01T00:00:02;12.83;;;7.10;;
35074;SDS011;21260;34.984;32.490;2023-06-01T00:02:32;15.00;;;7.00;;
35074;SDS011;21260;34.984;32.490;2023-06-01T00:04:58;13.33;;;6.73;;
35074;SDS011;21260;34.984;32.490;2023-06-01T00:07:27;7.40;;;4.80;;
35074;SDS011;21260;34.984;32.490;2023-06-01T00:09:55;11.43;;;5.30;;
35074;SDS011;21260;34.984;32.490;2023-06-01T00:12:21;9.20;;;5.90;;
35074;SDS011;21260;34.984;32.490;2023-06-01T00:14:50;10.53;;;5.40;;
35074;SDS011;21260;34.984;32.490;2023-06-01T00:17:17;10.60;;;5.40;;
35074;SDS011;21260;34.984;32.490;2023-06-01T00:19:45;8.37;;;5.70;;
35074;SDS011;21260;34.984;32.490;2023-06-01T00:22:13;9.63;;;5.37;;
35074;SDS011;21260;34.984;32.490;2023-06-01T00:24:39;12.37;;;5.03;;
35074;SDS011;21260;34.984;32.490;2023-06-01T00:27:05;9.30;;;4.40;;
35074;SDS011;21260;34.984;32.490;2023-06-01T00:29:32;8.90;;;3.77;;
35074;SDS011;21260;34.984;32.490;2023-06-01T00:31:58;7.53;;;4.07;;
35074;SDS011;21260;34.984;32.490;2023-06-01T00:34:24;7.03;;;3.57;;
35074;SDS011;21260;34.984;32.490;2023-06-01T00:36:51;6.20;;;3.70;;
35074;SDS011;21260;34.984;32.490;2023-06-01T00:39:17;5.17;;;3.60;;
35074;SDS011;21260;34.984;32.490;2023-06-01T00:41:43;3.27;;;2.47;;
35074;SDS011;21260;34.984;32.490;2023-06-01T00:44:10;5.70;;;3.03;;
35074;SDS011;21260;34.984;32.490;2023-06-01T00:46:39;7.13;;;4.67;;
35074;SDS011;21260;34.984;32.490;2023-06-01T00:49:06;8.17;;;4.83;;
35074;SDS011;21260;34.984;32.490;2023-06-01T00:51:32;10.37;;;4.80;;
35074;SDS011;21260;34.984;32.490;2023-06-01T00:54:00;9.30;;;5.10;;
35074;SDS011;21260;34.984;32.490;2023-06-01T00:56:27;8.03;;;4.47;;
35074;SDS011;21260;34.984;32.490;2023-06-01T00:58:54;7.80;;;3.93;;
35074;SDS011;21260;34.984;32.490;2023-06-01T01:01:26;8.03;;;4.30;;
35074;SDS011;21260;34.984;32.490;2023-06-01T01:03:52;7.00;;;4.83;;
35074;SDS011;21260;34.984;32.490;2023-06-01T01:09:22;9.73;;;5.03;;
35074;SDS011;21260;34.984;32.490;2023-06-01T01:12:14;8.40;;;4.70;;
35074;SDS011;21260;34.984;32.490;2023-06-01T01:15:01;9.63;;;5.37;;
35074;SDS011;21260;34.984;32.490;2023-06-01T01:18:11;11.70;;;5.33;;
35074;SDS011;21260;34.984;32.490;2023-06-01T01:20:51;7.23;;;4.53;;
35074;SDS011;21260;34.984;32.490;2023-06-01T01:30:02;6.53;;;4.30;;
35074;SDS011;21260;34.984;32.490;2023-06-01T01:32:32;10.67;;;5.10;;
35074;SDS011;21260;34.984;32.490;2023-06-01T01:35:00;8.30;;;5.83;;
35074;SDS011;21260;34.984;32.490;2023-06-01T01:37:32;8.20;;;5.70;;
35074;SDS011;21260;34.984;32.490;2023-06-01T01:39:59;9.23;;;5.70;;
35074;SDS011;21260;34.984;32.490;2023-06-01T01:42:26;10.17;;;6.33;;
35074;SDS011;21260;34.984;32.490;2023-06-01T01:44:53;10.87;;;6.10;;
35074;SDS011;21260;34.984;32.490;2023-06-01T01:50:31;13.03;;;5.33;;
35074;SDS011;21260;34.984;32.490;2023-06-01T01:53:04;9.07;;;5.27;;
35074;SDS011;21260;34.984;32.490;2023-06-01T01:55:34;12.53;;;5.37;;
35074;SDS011;21260;34.984;32.490;2023-06-01T01:58:02;11.57;;;5.93;;
35074;SDS011;21260;34.984;32.490;2023-06-01T02:00:30;12.17;;;5.50;;
35074;SDS011;21260;34.984;32.490;2023-06-01T02:02:57;8.67;;;4.97;;
35074;SDS011;21260;34.984;32.490;2023-06-01T02:05:25;10.10;;;5.87;;
35074;SDS011;21260;34.984;32.490;2023-06-01T02:07:52;12.33;;;5.90;;
35074;SDS011;21260;34.984;32.490;2023-06-01T02:10:18;8.20;;;5.20;;
35074;SDS011;21260;34.984;32.490;2023-06-01T02:12:44;9.60;;;5.13;;
35074;SDS011;21260;34.984;32.490;2023-06-01T02:15:10;19.17;;;5.60;;
35074;SDS011;21260;34.984;32.490;2023-06-01T02:17:36;11.67;;;4.73;;
35074;SDS011;21260;34.984;32.490;2023-06-01T02:20:04;7.60;;;4.23;;
35074;SDS011;21260;34.984;32.490;2023-06-01T02:22:30;5.47;;;4.30;;
35074;SDS011;21260;34.984;32.490;2023-06-01T02:24:57;7.43;;;4.27;;
35074;SDS011;21260;34.984;32.490;2023-06-01T02:27:23;8.47;;;4.57;;
35074;SDS011;21260;34.984;32.490;2023-06-01T02:29:49;9.80;;;4.43;;
35074;SDS011;21260;34.984;32.490;2023-06-01T02:32:16;7.60;;;4.47;;
35074;SDS011;21260;34.984;32.490;2023-06-01T02:34:42;8.87;;;3.93;;
35074;SDS011;21260;34.984;32.490;2023-06-01T02:37:08;7.17;;;4.57;;
35074;SDS011;21260;34.984;32.490;2023-06-01T02:39:34;7.10;;;4.80;;
35074;SDS011;21260;34.984;32.490;2023-06-01T02:42:00;6.97;;;4.40;;
35074;SDS011;21260;34.984;32.490;2023-06-01T02:44:26;11.23;;;4.73;;
35074;SDS011;21260;34.984;32.490;2023-06-01T02:46:53;9.20;;;4.47;;
35074;SDS011;21260;34.984;32.490;2023-06-01T02:49:19;9.60;;;4.60;;
35074;SDS011;21260;34.984;32.490;2023-06-01T02:51:45;6.60;;;3.93;;
35074;SDS011;21260;34.984;32.490;2023-06-01T02:54:11;6.53;;;4.33;;
35074;SDS011;21260;34.984;32.490;2023-06-01T02:56:38;6.90;;;4.27;;
35074;SDS011;21260;34.984;32.490;2023-06-01T02:59:04;8.83;;;4.73;;
35074;SDS011;21260;34.984;32.490;2023-06-01T03:01:31;9.53;;;4.03;;
35074;SDS011;21260;34.984;32.490;2023-06-01T03:04:01;6.87;;;4.30;;
35074;SDS011;21260;34.984;32.490;2023-06-01T03:06:32;8.37;;;4.57;;
35074;SDS011;21260;34.984;32.490;2023-06-01T03:09:03;6.93;;;4.60;;
35074;SDS011;21260;34.984;32.490;2023-06-01T03:11:30;11.10;;;5.27;;
35074;SDS011;21260;34.984;32.490;2023-06-01T03:13:56;11.40;;;5.20;;
35074;SDS011;21260;34.984;32.490;2023-06-01T03:16:23;9.27;;;4.87;;
35074;SDS011;21260;34.984;32.490;2023-06-01T03:18:50;7.23;;;4.53;;
35074;SDS011;21260;34.984;32.490;2023-06-01T03:21:17;7.73;;;4.77;;
35074;SDS011;21260;34.984;32.490;2023-06-01T03:23:45;10.17;;;4.97;;
35074;SDS011;21260;34.984;32.490;2023-06-01T03:26:11;8.33;;;5.00;;
35074;SDS011;21260;34.984;32.490;2023-06-01T03:28:38;15.53;;;4.90;;
35074;SDS011;21260;34.984;32.490;2023-06-01T03:31:05;9.77;;;4.60;;
35074;SDS011;21260;34.984;32.490;2023-06-01T03:33:32;10.30;;;4.90;;
35074;SDS011;21260;34.984;32.490;2023-06-01T03:35:58;7.27;;;4.87;;
35074;SDS011;21260;34.984;32.490;2023-06-01T03:38:24;9.00;;;4.43;;
35074;SDS011;21260;34.984;32.490;2023-06-01T03:40:51;6.63;;;4.40;;
35074;SDS011;21260;34.984;32.490;2023-06-01T03:43:17;6.07;;;4.43;;
35074;SDS011;21260;34.984;32.490;2023-06-01T03:45:43;6.87;;;4.40;;
35074;SDS011;21260;34.984;32.490;2023-06-01T03:48:09;10.57;;;4.30;;
35074;SDS011;21260;34.984;32.490;2023-06-01T03:50:36;8.73;;;4.57;;
35074;SDS011;21260;34.984;32.490;2023-06-01T03:53:02;5.37;;;4.13;;
35074;SDS011;21260;34.984;32.490;2023-06-01T03:55:28;6.83;;;4.40;;
35074;SDS011;21260;34.984;32.490;2023-06-01T03:57:56;6.30;;;4.30;;
35074;SDS011;21260;34.984;32.490;2023-06-01T04:00:22;7.37;;;4.50;;
35074;SDS011;21260;34.984;32.490;2023-06-01T04:02:53;7.30;;;4.17;;
35074;SDS011;21260;34.984;32.490;2023-06-01T04:05:23;8.27;;;4.40;;
35074;SDS011;21260;34.984;32.490;2023-06-01T04:07:52;7.17;;;4.20;;
35074;SDS011;21260;34.984;32.490;2023-06-01T04:10:20;5.27;;;4.00;;
35074;SDS011;21260;34.984;32.490;2023-06-01T04:12:47;6.10;;;3.77;;
35074;SDS011;21260;34.984;32.490;2023-06-01T04:15:16;8.40;;;4.20;;
35074;SDS011;21260;34.984;32.490;2023-06-01T04:17:44;9.63;;;4.43;;
35074;SDS011;21260;34.984;32.490;2023-06-01T04:20:14;7.20;;;4.27;;
35074;SDS011;21260;34.984;32.490;2023-06-01T04:22:42;8.23;;;4.50;;
35074;SDS011;21260;34.984;32.490;2023-06-01T04:25:11;5.90;;;4.40;;
35074;SDS011;21260;34.984;32.490;2023-06-01T04:27:44;5.93;;;3.97;;
35074;SDS011;21260;34.984;32.490;2023-06-01T04:30:13;10.17;;;4.20;;
35074;SDS011;21260;34.984;32.490;2023-06-01T04:32:41;5.73;;;3.77;;
35074;SDS011;21260;34.984;32.490;2023-06-01T04:35:13;5.30;;;3.53;;
35074;SDS011;21260;34.984;32.490;2023-06-01T04:37:40;6.73;;;3.80;;
35074;SDS011;21260;34.984;32.490;2023-06-01T04:40:08;7.13;;;3.90;;
35074;SDS011;21260;34.984;32.490;2023-06-01T04:42:36;6.73;;;3.97;;
35074;SDS011;21260;34.984;32.490;2023-06-01T04:45:08;9.83;;;4.00;;
35074;SDS011;21260;34.984;32.490;2023-06-01T04:47:36;7.47;;;3.60;;
35074;SDS011;21260;34.984;32.490;2023-06-01T04:50:07;8.17;;;3.73;;
35074;SDS011;21260;34.984;32.490;2023-06-01T04:52:36;10.37;;;4.20;;
35074;SDS011;21260;34.984;32.490;2023-06-01T04:55:04;5.73;;;3.43;;
35074;SDS011;21260;34.984;32.490;2023-06-01T04:57:36;7.20;;;3.73;;
35074;SDS011;21260;34.984;32.490;2023-06-01T05:00:04;9.30;;;3.73;;
35074;SDS011;21260;34.984;32.490;2023-06-01T05:02:36;6.33;;;3.50;;
35074;SDS011;21260;34.984;32.490;2023-06-01T05:05:04;6.33;;;3.87;;
35074;SDS011;21260;34.984;32.490;2023-06-01T05:07:34;7.77;;;3.67;;
35074;SDS011;21260;34.984;32.490;2023-06-01T05:10:02;8.93;;;4.00;;
35074;SDS011;21260;34.984;32.490;2023-06-01T05:12:31;10.57;;;4.17;;
35074;SDS011;21260;34.984;32.490;2023-06-01T05:14:59;9.53;;;4.00;;
35074;SDS011;21260;34.984;32.490;2023-06-01T05:17:29;7.63;;;4.30;;
35074;SDS011;21260;34.984;32.490;2023-06-01T05:19:55;9.30;;;4.87;;
35074;SDS011;21260;34.984;32.490;2023-06-01T05:22:22;7.80;;;3.90;;
35074;SDS011;21260;34.984;32.490;2023-06-01T05:24:49;8.27;;;4.70;;
35074;SDS011;21260;34.984;32.490;2023-06-01T05:27:16;10.37;;;4.30;;
35074;SDS011;21260;34.984;32.490;2023-06-01T05:29:42;7.60;;;4.53;;
35074;SDS011;21260;34.984;32.490;2023-06-01T05:32:09;11.47;;;4.47;;
35074;SDS011;21260;34.984;32.490;2023-06-01T05:34:35;10.73;;;4.43;;
35074;SDS011;21260;34.984;32.490;2023-06-01T05:37:02;6.83;;;3.70;;
35074;SDS011;21260;34.984;32.490;2023-06-01T05:39:28;5.63;;;3.93;;
35074;SDS011;21260;34.984;32.490;2023-06-01T05:41:56;7.57;;;4.50;;
35074;SDS011;21260;34.984;32.490;2023-06-01T05:44:23;10.03;;;4.17;;
35074;SDS011;21260;34.984;32.490;2023-06-01T05:46:50;9.23;;;4.20;;
35074;SDS011;21260;34.984;32.490;2023-06-01T05:49:18;6.67;;;4.03;;
35074;SDS011;21260;34.984;32.490;2023-06-01T05:51:44;7.70;;;3.40;;
35074;SDS011;21260;34.984;32.490;2023-06-01T05:54:12;7.93;;;4.00;;
35074;SDS011;21260;34.984;32.490;2023-06-01T05:56:38;6.13;;;3.60;;
35074;SDS011;21260;34.984;32.490;2023-06-01T05:59:09;6.77;;;3.80;;
35074;SDS011;21260;34.984;32.490;2023-06-01T06:01:36;9.13;;;3.60;;
35074;SDS011;21260;34.984;32.490;2023-06-01T06:04:02;8.17;;;3.37;;
35074;SDS011;21260;34.984;32.490;2023-06-01T06:06:29;7.77;;;3.63;;
35074;SDS011;21260;34.984;32.490;2023-06-01T06:08:55;5.10;;;3.00;;
35074;SDS011;21260;34.984;32.490;2023-06-01T06:11:22;6.53;;;3.07;;
35074;SDS011;21260;34.984;32.490;2023-06-01T06:13:48;6.17;;;3.17;;
35074;SDS011;21260;34.984;32.490;2023-06-01T06:16:15;6.23;;;3.40;;
35074;SDS011;21260;34.984;32.490;2023-06-01T06:18:42;8.93;;;3.00;;
35074;SDS011;21260;34.984;32.490;2023-06-01T06:21:08;11.43;;;3.27;;
35074;SDS011;21260;34.984;32.490;2023-06-01T06:23:35;8.10;;;2.87;;
35074;SDS011;21260;34.984;32.490;2023-06-01T06:26:02;8.40;;;3.07;;
35074;SDS011;21260;34.984;32.490;2023-06-01T06:28:28;7.97;;;2.93;;
35074;SDS011;21260;34.984;32.490;2023-06-01T06:30:54;6.43;;;2.77;;
35074;SDS011;21260;34.984;32.490;2023-06-01T06:33:22;4.53;;;3.00;;
35074;SDS011;21260;34.984;32.490;2023-06-01T06:35:48;7.10;;;2.77;;
35074;SDS011;21260;34.984;32.490;2023-06-01T06:38:14;8.43;;;3.00;;
35074;SDS011;21260;34.984;32.490;2023-06-01T06:40:41;6.67;;;2.80;;
35074;SDS011;21260;34.984;32.490;2023-06-01T06:43:08;5.00;;;3.00;;
35074;SDS011;21260;34.984;32.490;2023-06-01T06:45:34;5.70;;;3.07;;
35074;SDS011;21260;34.984;32.490;2023-06-01T06:48:01;6.27;;;3.00;;
35074;SDS011;21260;34.984;32.490;2023-06-01T06:50:27;7.07;;;3.17;;
35074;SDS011;21260;34.984;32.490;2023-06-01T06:52:54;5.50;;;2.90;;
35074;SDS011;21260;34.984;32.490;2023-06-01T06:55:20;4.65;;;2.40;;
35074;SDS011;21260;34.984;32.490;2023-06-01T06:57:47;5.93;;;3.00;;
35074;SDS011;21260;34.984;32.490;2023-06-01T07:00:13;12.48;;;3.22;;
35074;SDS011;21260;34.984;32.490;2023-06-01T07:02:40;8.23;;;4.03;;
35074;SDS011;21260;34.984;32.490;2023-06-01T07:05:09;10.82;;;4.57;;
35074;SDS011;21260;34.984;32.490;2023-06-01T07:07:36;6.65;;;4.63;;
35074;SDS011;21260;34.984;32.490;2023-06-01T07:10:04;8.95;;;4.63;;
35074;SDS011;21260;34.984;32.490;2023-06-01T07:12:31;8.13;;;4.25;;
35074;SDS011;21260;34.984;32.490;2023-06-01T07:14:57;12.55;;;4.80;;
35074;SDS011;21260;34.984;32.490;2023-06-01T07:17:23;7.05;;;4.75;;
35074;SDS011;21260;34.984;32.490;2023-06-01T07:19:50;9.60;;;4.88;;
35074;SDS011;21260;34.984;32.490;2023-06-01T07:22:16;11.18;;;5.38;;
35074;SDS011;21260;34.984;32.490;2023-06-01T07:24:42;8.05;;;4.40;;
35074;SDS011;21260;34.984;32.490;2023-06-01T07:27:10;11.68;;;4.15;;
35074;SDS011;21260;34.984;32.490;2023-06-01T07:29:38;11.25;;;5.22;;
35074;SDS011;21260;34.984;32.490;2023-06-01T07:32:05;12.10;;;5.17;;
35074;SDS011;21260;34.984;32.490;2023-06-01T07:34:32;11.63;;;4.82;;
35074;SDS011;21260;34.984;32.490;2023-06-01T07:37:01;7.85;;;5.13;;
35074;SDS011;21260;34.984;32.490;2023-06-01T07:39:28;9.07;;;5.35;;
35074;SDS011;21260;34.984;32.490;2023-06-01T07:41:55;9.20;;;5.45;;
35074;SDS011;21260;34.984;32.490;2023-06-01T07:44:22;8.50;;;5.22;;
35074;SDS011;21260;34.984;32.490;2023-06-01T07:46:48;14.18;;;5.57;;
35074;SDS011;21260;34.984;32.490;2023-06-01T07:49:15;10.05;;;5.22;;
35074;SDS011;21260;34.984;32.490;2023-06-01T07:51:41;13.45;;;5.38;;
35074;SDS011;21260;34.984;32.490;2023-06-01T07:54:08;8.63;;;5.22;;
35074;SDS011;21260;34.984;32.490;2023-06-01T07:56:35;7.80;;;4.80;;
35074;SDS011;21260;34.984;32.490;2023-06-01T07:59:02;10.30;;;5.15;;
35074;SDS011;21260;34.984;32.490;2023-06-01T08:01:28;13.15;;;5.60;;
35074;SDS011;21260;34.984;32.490;2023-06-01T08:03:55;10.13;;;5.22;;
35074;SDS011;21260;34.984;32.490;2023-06-01T08:06:22;9.52;;;4.85;;
35074;SDS011;21260;34.984;32.490;2023-06-01T08:08:49;10.07;;;5.38;;
35074;SDS011;21260;34.984;32.490;2023-06-01T08:11:16;6.85;;;5.10;;
35074;SDS011;21260;34.984;32.490;2023-06-01T08:13:43;9.95;;;5.28;;
35074;SDS011;21260;34.984;32.490;2023-06-01T08:16:13;11.65;;;5.25;;
35074;SDS011;21260;34.984;32.490;2023-06-01T08:18:40;7.60;;;4.85;;
35074;SDS011;21260;34.984;32.490;2023-06-01T08:21:06;9.23;;;4.90;;
35074;SDS011;21260;34.984;32.490;2023-06-01T08:23:35;9.32;;;5.32;;
35074;SDS011;21260;34.984;32.490;2023-06-01T08:26:02;8.85;;;4.72;;
35074;SDS011;21260;34.984;32.490;2023-06-01T08:28:28;9.30;;;4.90;;
35074;SDS011;21260;34.984;32.490;2023-06-01T08:30:55;7.55;;;4.93;;
35074;SDS011;21260;34.984;32.490;2023-06-01T08:33:21;9.60;;;4.70;;
35074;SDS011;21260;34.984;32.490;2023-06-01T08:35:48;8.18;;;4.55;;
35074;SDS011;21260;34.984;32.490;2023-06-01T08:38:14;7.60;;;4.53;;
35074;SDS011;21260;34.984;32.490;2023-06-01T08:40:40;8.65;;;4.95;;
35074;SDS011;21260;34.984;32.490;2023-06-01T08:43:27;6.55;;;4.47;;
35074;SDS011;21260;34.984;32.490;2023-06-01T08:45:56;6.47;;;4.30;;
35074;SDS011;21260;34.984;32.490;2023-06-01T08:48:26;6.05;;;4.45;;
35074;SDS011;21260;34.984;32.490;2023-06-01T08:50:54;11.20;;;4.32;;
35074;SDS011;21260;34.984;32.490;2023-06-01T08:53:23;8.05;;;5.10;;
35074;SDS011;21260;34.984;32.490;2023-06-01T08:55:54;8.82;;;5.35;;
35074;SDS011;21260;34.984;32.490;2023-06-01T08:58:21;8.18;;;4.95;;
35074;SDS011;21260;34.984;32.490;2023-06-01T09:00:49;9.23;;;5.15;;
35074;SDS011;21260;34.984;32.490;2023-06-01T09:03:19;9.25;;;5.15;;
35074;SDS011;21260;34.984;32.490;2023-06-01T09:05:45;10.63;;;4.93;;
35074;SDS011;21260;34.984;32.490;2023-06-01T09:08:12;9.55;;;5.13;;
35074;SDS011;21260;34.984;32.490;2023-06-01T09:10:41;10.63;;;5.20;;
35074;SDS011;21260;34.984;32.490;2023-06-01T09:13:07;8.73;;;5.20;;
35074;SDS011;21260;34.984;32.490;2023-06-01T09:15:34;10.50;;;5.13;;
35074;SDS011;21260;34.984;32.490;2023-06-01T09:18:04;9.60;;;4.70;;
35074;SDS011;21260;34.984;32.490;2023-06-01T09:20:41;9.02;;;5.10;;
35074;SDS011;21260;34.984;32.490;2023-06-01T09:23:07;8.93;;;5.25;;
35074;SDS011;21260;34.984;32.490;2023-06-01T09:25:34;9.82;;;5.15;;
35074;SDS011;21260;34.984;32.490;2023-06-01T09:28:00;10.00;;;5.10;;
35074;SDS011;21260;34.984;32.490;2023-06-01T09:30:38;8.45;;;4.85;;
35074;SDS011;21260;34.984;32.490;2023-06-01T09:33:12;6.88;;;4.85;;
35074;SDS011;21260;34.984;32.490;2023-06-01T09:35:42;11.75;;;5.57;;
35074;SDS011;21260;34.984;32.490;2023-06-01T09:38:20;8.13;;;4.88;;
35074;SDS011;21260;34.984;32.490;2023-06-01T09:41:01;12.63;;;5.20;;
35074;SDS011;21260;34.984;32.490;2023-06-01T09:43:28;9.02;;;4.68;;
35074;SDS011;21260;34.984;32.490;2023-06-01T09:46:08;7.35;;;4.93;;
35074;SDS011;21260;34.984;32.490;2023-06-01T09:48:39;11.45;;;4.60;;
35074;SDS011;21260;34.984;32.490;2023-06-01T09:51:25;7.43;;;4.80;;
35074;SDS011;21260;34.984;32.490;2023-06-01T09:53:56;10.40;;;4.93;;
35074;SDS011;21260;34.984;32.490;2023-06-01T09:56:22;11.13;;;5.30;;
35074;SDS011;21260;34.984;32.490;2023-06-01T09:58:55;7.93;;;4.72;;
35074;SDS011;21260;34.984;32.490;2023-06-01T10:01:24;10.27;;;5.13;;
35074;SDS011;21260;34.984;32.490;2023-06-01T10:03:57;33.88;;;5.82;;
35074;SDS011;21260;34.984;32.490;2023-06-01T10:06:26;10.07;;;5.22;;
35074;SDS011;21260;34.984;32.490;2023-06-01T10:08:55;11.15;;;5.53;;
35074;SDS011;21260;34.984;32.490;2023-06-01T10:11:22;8.73;;;4.82;;
35074;SDS011;21260;34.984;32.490;2023-06-01T10:13:49;7.20;;;4.70;;
35074;SDS011;21260;34.984;32.490;2023-06-01T10:16:16;12.20;;;5.22;;
35074;SDS011;21260;34.984;32.490;2023-06-01T10:18:42;15.07;;;5.10;;
35074;SDS011;21260;34.984;32.490;2023-06-01T10:21:11;8.77;;;4.93;;
35074;SDS011;21260;34.984;32.490;2023-06-01T10:23:37;8.85;;;5.55;;
35074;SDS011;21260;34.984;32.490;2023-06-01T10:26:05;10.13;;;5.68;;
35074;SDS011;21260;34.984;32.490;2023-06-01T10:28:40;13.10;;;5.22;;
35074;SDS011;21260;34.984;32.490;2023-06-01T10:34:03;11.32;;;5.30;;
35074;SDS011;21260;34.984;32.490;2023-06-01T10:39:25;9.32;;;4.80;;
35074;SDS011;21260;34.984;32.490;2023-06-01T10:41:58;12.13;;;5.35;;
35074;SDS011;21260;34.984;32.490;2023-06-01T10:50:20;7.15;;;4.75;;
35074;SDS011;21260;34.984;32.490;2023-06-01T10:57:37;7.47;;;4.57;;
35074;SDS011;21260;34.984;32.490;2023-06-01T11:00:17;9.10;;;4.88;;
35074;SDS011;21260;34.984;32.490;2023-06-01T11:02:54;15.63;;;5.70;;
35074;SDS011;21260;34.984;32.490;2023-06-01T11:05:46;10.32;;;4.82;;
35074;SDS011;21260;34.984;32.490;2023-06-01T11:13:34;8.10;;;5.18;;
35074;SDS011;21260;34.984;32.490;2023-06-01T11:21:21;7.90;;;5.30;;
35074;SDS011;21260;34.984;32.490;2023-06-01T11:23:50;10.75;;;6.10;;
35074;SDS011;21260;34.984;32.490;2023-06-01T11:26:19;9.60;;;5.10;;
35074;SDS011;21260;34.984;32.490;2023-06-01T11:28:50;12.27;;;5.38;;
35074;SDS011;21260;34.984;32.490;2023-06-01T11:31:19;11.23;;;4.90;;
35074;SDS011;21260;34.984;32.490;2023-06-01T11:33:49;11.80;;;5.53;;
35074;SDS011;21260;34.984;32.490;2023-06-01T11:36:18;12.00;;;5.53;;
35074;SDS011;21260;34.984;32.490;2023-06-01T11:38:49;10.88;;;4.97;;
35074;SDS011;21260;34.984;32.490;2023-06-01T11:41:16;11.60;;;5.60;;
35074;SDS011;21260;34.984;32.490;2023-06-01T11:43:53;10.25;;;5.28;;
35074;SDS011;21260;34.984;32.490;2023-06-01T11:46:23;10.00;;;4.72;;
35074;SDS011;21260;34.984;32.490;2023-06-01T11:49:01;10.32;;;5.22;;
35074;SDS011;21260;34.984;32.490;2023-06-01T11:51:32;8.68;;;5.00;;
35074;SDS011;21260;34.984;32.490;2023-06-01T11:54:02;8.18;;;4.80;;
35074;SDS011;21260;34.984;32.490;2023-06-01T11:56:34;7.53;;;4.63;;
35074;SDS011;21260;34.984;32.490;2023-06-01T11:59:04;9.18;;;4.90;;
35074;SDS011;21260;34.984;32.490;2023-06-01T12:01:35;12.68;;;5.75;;
35074;SDS011;21260;34.984;32.490;2023-06-01T12:06:41;9.55;;;5.03;;
35074;SDS011;21260;34.984;32.490;2023-06-01T12:09:08;6.80;;;5.43;;
35074;SDS011;21260;34.984;32.490;2023-06-01T12:11:35;9.23;;;5.30;;
35074;SDS011;21260;34.984;32.490;2023-06-01T12:14:03;10.23;;;5.25;;
35074;SDS011;21260;34.984;32.490;2023-06-01T12:19:20;11.80;;;5.10;;
35074;SDS011;21260;34.984;32.490;2023-06-01T12:21:51;8.55;;;5.28;;
35074;SDS011;21260;34.984;32.490;2023-06-01T12:24:26;9.95;;;4.82;;
35074;SDS011;21260;34.984;32.490;2023-06-01T12:26:54;11.43;;;5.97;;
35074;SDS011;21260;34.984;32.490;2023-06-01T12:29:36;8.40;;;5.30;;
35074;SDS011;21260;34.984;32.490;2023-06-01T12:32:04;8.05;;;5.30;;
35074;SDS011;21260;34.984;32.490;2023-06-01T12:34:31;10.85;;;5.15;;
35074;SDS011;21260;34.984;32.490;2023-06-01T12:36:57;10.35;;;5.13;;
35074;SDS011;21260;34.984;32.490;2023-06-01T12:39:33;11.50;;;5.75;;
35074;SDS011;21260;34.984;32.490;2023-06-01T12:42:05;7.82;;;5.50;;
35074;SDS011;21260;34.984;32.490;2023-06-01T12:44:31;10.30;;;5.63;;
35074;SDS011;21260;34.984;32.490;2023-06-01T12:46:58;8.48;;;4.80;;
35074;SDS011;21260;34.984;32.490;2023-06-01T12:49:29;11.02;;;4.95;;
35074;SDS011;21260;34.984;32.490;2023-06-01T12:51:55;8.52;;;5.35;;
35074;SDS011;21260;34.984;32.490;2023-06-01T12:54:22;10.70;;;5.43;;
35074;SDS011;21260;34.984;32.490;2023-06-01T12:56:48;13.48;;;5.78;;
35074;SDS011;21260;34.984;32.490;2023-06-01T12:59:16;9.85;;;4.93;;
35074;SDS011;21260;34.984;32.490;2023-06-01T13:01:43;12.45;;;5.22;;
35074;SDS011;21260;34.984;32.490;2023-06-01T13:04:09;8.85;;;5.57;;
35074;SDS011;21260;34.984;32.490;2023-06-01T13:06:35;11.25;;;5.30;;
35074;SDS011;21260;34.984;32.490;2023-06-01T13:09:03;13.32;;;5.43;;
35074;SDS011;21260;34.984;32.490;2023-06-01T13:11:30;12.07;;;5.70;;
35074;SDS011;21260;34.984;32.490;2023-06-01T13:13:56;7.82;;;4.85;;
35074;SDS011;21260;34.984;32.490;2023-06-01T13:16:22;8.55;;;4.90;;
35074;SDS011;21260;34.984;32.490;2023-06-01T13:18:49;11.85;;;5.00;;
35074;SDS011;21260;34.984;32.490;2023-06-01T13:21:16;13.88;;;5.88;;
35074;SDS011;21260;34.984;32.490;2023-06-01T13:23:43;10.00;;;5.13;;
35074;SDS011;21260;34.984;32.490;2023-06-01T13:26:09;9.75;;;5.32;;
35074;SDS011;21260;34.984;32.490;2023-06-01T13:28:37;10.40;;;5.38;;
35074;SDS011;21260;34.984;32.490;2023-06-01T13:31:03;9.52;;;4.78;;
35074;SDS011;21260;34.984;32.490;2023-06-01T13:33:29;8.10;;;5.50;;
35074;SDS011;21260;34.984;32.490;2023-06-01T13:35:57;8.25;;;5.35;;
35074;SDS011;21260;34.984;32.490;2023-06-01T13:38:24;11.38;;;4.90;;
35074;SDS011;21260;34.984;32.490;2023-06-01T13:40:50;12.68;;;5.10;;
35074;SDS011;21260;34.984;32.490;2023-06-01T13:43:16;9.13;;;4.82;;
35074;SDS011;21260;34.984;32.490;2023-06-01T13:45:43;9.65;;;4.90;;
35074;SDS011;21260;34.984;32.490;2023-06-01T13:48:09;10.90;;;4.85;;
35074;SDS011;21260;34.984;32.490;2023-06-01T13:50:35;10.50;;;5.00;;
35074;SDS011;21260;34.984;32.490;2023-06-01T13:53:02;9.32;;;5.00;;
35074;SDS011;21260;34.984;32.490;2023-06-01T13:55:31;9.30;;;5.47;;
35074;SDS011;21260;34.984;32.490;2023-06-01T13:57:58;8.40;;;4.72;;
35074;SDS011;21260;34.984;32.490;2023-06-01T14:00:24;13.38;;;5.50;;
35074;SDS011;21260;34.984;32.490;2023-06-01T14:02:53;13.43;;;4.72;;
35074;SDS011;21260;34.984;32.490;2023-06-01T14:05:19;10.82;;;5.10;;
35074;SDS011;21260;34.984;32.490;2023-06-01T14:07:45;11.10;;;5.03;;
35074;SDS011;21260;34.984;32.490;2023-06-01T14:10:12;10.07;;;4.80;;
35074;SDS011;21260;34.984;32.490;2023-06-01T14:12:39;7.47;;;3.88;;
35074;SDS011;21260;34.984;32.490;2023-06-01T14:15:06;8.43;;;4.05;;
35074;SDS011;21260;34.984;32.490;2023-06-01T14:17:33;9.77;;;3.80;;
35074;SDS011;21260;34.984;32.490;2023-06-01T14:19:59;10.77;;;3.67;;
35074;SDS011;21260;34.984;32.490;2023-06-01T14:22:26;9.75;;;3.67;;
35074;SDS011;21260;34.984;32.490;2023-06-01T14:24:52;8.20;;;3.55;;
35074;SDS011;21260;34.984;32.490;2023-06-01T14:27:18;13.10;;;4.05;;
35074;SDS011;21260;34.984;32.490;2023-06-01T14:29:46;5.32;;;3.78;;
35074;SDS011;21260;34.984;32.490;2023-06-01T14:32:13;5.85;;;3.42;;
35074;SDS011;21260;34.984;32.490;2023-06-01T14:34:39;7.18;;;3.47;;
35074;SDS011;21260;34.984;32.490;2023-06-01T14:37:06;5.20;;;3.50;;
35074;SDS011;21260;34.984;32.490;2023-06-01T14:39:36;7.88;;;3.40;;
35074;SDS011;21260;34.984;32.490;2023-06-01T14:42:03;6.13;;;2.78;;
35074;SDS011;21260;34.984;32.490;2023-06-01T14:44:30;7.43;;;2.85;;
35074;SDS011;21260;34.984;32.490;2023-06-01T14:46:56;11.20;;;3.17;;
35074;SDS011;21260;34.984;32.490;2023-06-01T14:49:23;6.25;;;3.25;;
35074;SDS011;21260;34.984;32.490;2023-06-01T14:51:49;9.73;;;4.22;;
35074;SDS011;21260;34.984;32.490;2023-06-01T14:54:15;7.57;;;4.28;;
35074;SDS011;21260;34.984;32.490;2023-06-01T14:56:41;10.90;;;4.40;;
35074;SDS011;21260;34.984;32.490;2023-06-01T14:59:08;6.55;;;4.10;;
35074;SDS011;21260;34.984;32.490;2023-06-01T15:01:34;11.38;;;5.15;;
35074;SDS011;21260;34.984;32.490;2023-06-01T15:04:00;10.07;;;4.43;;
35074;SDS011;21260;34.984;32.490;2023-06-01T15:06:27;11.23;;;4.50;;
35074;SDS011;21260;34.984;32.490;2023-06-01T15:08:53;13.43;;;4.38;;
35074;SDS011;21260;34.984;32.490;2023-06-01T15:11:19;6.25;;;4.00;;
35074;SDS011;21260;34.984;32.490;2023-06-01T15:13:46;6.25;;;4.05;;
35074;SDS011;21260;34.984;32.490;2023-06-01T15:16:14;9.65;;;4.97;;
35074;SDS011;21260;34.984;32.490;2023-06-01T15:18:41;11.07;;;5.07;;
35074;SDS011;21260;34.984;32.490;2023-06-01T15:21:07;14.55;;;4.90;;